createdAt,value
2018-04-06T00:00:10.761Z,69.48
2018-04-06T00:02:38.905Z,69.59
2018-04-06T00:05:07.049Z,69.62
2018-04-06T00:07:35.169Z,70.08
2018-04-06T00:10:03.312Z,69.60
2018-04-06T00:12:31.451Z,70.05
2018-04-06T00:14:59.590Z,70.00
2018-04-06T00:17:27.705Z,70.04
2018-04-06T00:19:55.877Z,70.26
2018-04-06T00:22:23.971Z,71.19
2018-04-06T00:24:52.118Z,71.45
2018-04-06T00:27:20.234Z,70.60
2018-04-06T00:29:48.356Z,70.19
2018-04-06T00:32:16.460Z,70.29
2018-04-06T00:34:44.625Z,70.04
2018-04-06T00:37:12.754Z,70.77
2018-04-06T00:39:40.871Z,71.33
2018-04-06T00:42:08.974Z,71.23
2018-04-06T00:44:37.110Z,70.87
2018-04-06T00:47:05.246Z,70.40
2018-04-06T00:49:33.365Z,70.04
2018-04-06T00:52:01.489Z,70.20
2018-04-06T00:54:29.618Z,70.00
2018-04-06T00:56:57.763Z,69.97
2018-04-06T00:59:25.892Z,69.65
2018-04-06T01:01:54.042Z,69.74
2018-04-06T01:04:22.168Z,70.17
2018-04-06T01:06:50.301Z,69.85
2018-04-06T01:09:18.453Z,70.70
2018-04-06T01:11:46.582Z,71.04
2018-04-06T01:14:14.700Z,70.91
2018-04-06T01:16:42.810Z,71.56
2018-04-06T01:19:10.937Z,72.55
2018-04-06T01:21:39.119Z,72.08
2018-04-06T01:24:07.264Z,71.83
2018-04-06T01:26:35.383Z,71.76
2018-04-06T01:29:03.533Z,71.59
2018-04-06T01:31:31.642Z,71.60
2018-04-06T01:33:59.793Z,71.50
2018-04-06T01:36:28.066Z,71.57
2018-04-06T01:38:56.172Z,71.97
2018-04-06T01:41:24.294Z,71.07
2018-04-06T01:43:52.435Z,71.10
2018-04-06T01:46:20.581Z,71.90
2018-04-06T01:48:48.765Z,71.20
2018-04-06T01:51:16.906Z,71.27
2018-04-06T01:53:45.052Z,71.24
2018-04-06T01:56:13.164Z,71.12
2018-04-06T01:58:41.305Z,71.59
2018-04-06T02:01:09.427Z,72.27
2018-04-06T02:03:37.557Z,72.29
2018-04-06T02:06:05.696Z,72.02
2018-04-06T02:08:33.836Z,71.40
2018-04-06T02:11:01.974Z,71.61
2018-04-06T02:13:30.099Z,72.00
2018-04-06T02:15:58.228Z,73.30
2018-04-06T02:18:26.330Z,73.03
2018-04-06T02:20:54.501Z,72.47
2018-04-06T02:23:22.656Z,72.58
2018-04-06T02:25:50.754Z,72.23
2018-04-06T02:28:18.866Z,72.33
2018-04-06T02:30:46.994Z,72.38
2018-04-06T02:33:15.120Z,72.21
2018-04-06T02:35:43.259Z,71.41
2018-04-06T02:38:11.405Z,71.75
2018-04-06T02:40:39.516Z,72.38
2018-04-06T02:43:07.646Z,72.24
2018-04-06T02:45:35.771Z,71.97
2018-04-06T02:48:03.888Z,71.63
2018-04-06T02:50:32.913Z,71.59
2018-04-06T02:53:01.043Z,71.11
2018-04-06T02:55:29.166Z,71.12
2018-04-06T02:57:57.314Z,72.71
2018-04-06T03:00:25.444Z,73.10
2018-04-06T03:02:53.566Z,73.15
2018-04-06T03:05:21.703Z,73.12
2018-04-06T03:07:49.826Z,73.09
2018-04-06T03:10:17.954Z,73.64
2018-04-06T03:12:46.076Z,74.12
2018-04-06T03:15:14.196Z,73.36
2018-04-06T03:17:42.460Z,73.99
2018-04-06T03:20:10.571Z,74.29
2018-04-06T03:22:38.700Z,74.02
2018-04-06T03:25:06.855Z,73.89
2018-04-06T03:27:34.955Z,73.49
2018-04-06T03:30:03.070Z,73.36
2018-04-06T03:32:31.237Z,72.57
2018-04-06T03:34:59.688Z,72.79
2018-04-06T03:37:27.815Z,72.64
2018-04-06T03:39:55.932Z,72.38
2018-04-06T03:42:27.269Z,71.87
2018-04-06T03:44:55.376Z,71.92
2018-04-06T03:47:23.525Z,71.76
2018-04-06T03:49:51.632Z,71.57
2018-04-06T03:52:19.777Z,71.76
2018-04-06T03:54:47.896Z,71.92
2018-04-06T03:57:16.014Z,71.93
2018-04-06T03:59:44.149Z,72.07
2018-04-06T04:02:12.250Z,72.34
2018-04-06T04:04:40.402Z,72.07
2018-04-06T04:07:08.520Z,71.92
2018-04-06T04:09:36.632Z,71.76
2018-04-06T04:12:04.770Z,71.89
2018-04-06T04:14:32.901Z,71.82
2018-04-06T04:17:01.019Z,71.67
2018-04-06T04:19:29.155Z,72.14
2018-04-06T04:21:57.268Z,72.04
2018-04-06T04:24:25.417Z,71.97
2018-04-06T04:26:53.513Z,71.61
2018-04-06T04:29:21.665Z,72.33
2018-04-06T04:31:49.799Z,72.52
2018-04-06T04:34:17.916Z,72.69
2018-04-06T04:36:46.061Z,73.31
2018-04-06T04:39:14.169Z,73.11
2018-04-06T04:41:42.330Z,72.66
2018-04-06T04:44:10.443Z,72.32
2018-04-06T04:46:38.583Z,71.97
2018-04-06T04:49:06.702Z,72.25
2018-04-06T04:51:35.303Z,72.09
2018-04-06T04:54:03.442Z,71.66
2018-04-06T04:56:31.581Z,72.47
2018-04-06T04:59:00.021Z,72.67
2018-04-06T05:01:28.142Z,73.04
2018-04-06T05:03:56.260Z,73.40
2018-04-06T05:06:27.548Z,73.71
2018-04-06T05:08:55.681Z,72.79
2018-04-06T05:11:23.774Z,70.98
2018-04-06T05:13:51.898Z,71.08
2018-04-06T05:16:20.027Z,71.41
2018-04-06T05:18:48.180Z,71.80
2018-04-06T05:21:16.280Z,71.70
2018-04-06T05:23:44.433Z,71.78
2018-04-06T05:26:12.561Z,71.34
2018-04-06T05:28:40.692Z,71.88
2018-04-06T05:31:08.818Z,72.10
2018-04-06T05:33:36.947Z,72.22
2018-04-06T05:36:05.085Z,73.00
2018-04-06T05:38:33.222Z,72.77
2018-04-06T05:41:01.338Z,73.00
2018-04-06T05:43:29.470Z,71.74
2018-04-06T05:45:57.610Z,71.92
2018-04-06T05:48:25.745Z,72.18
2018-04-06T05:50:53.865Z,71.30
2018-04-06T05:53:22.011Z,71.46
2018-04-06T05:55:50.139Z,70.29
2018-04-06T05:58:18.281Z,70.14
2018-04-06T06:00:46.421Z,69.21
2018-04-06T06:03:14.543Z,69.50
2018-04-06T06:05:42.680Z,69.28
2018-04-06T06:08:10.811Z,68.67
2018-04-06T06:10:38.913Z,68.97
2018-04-06T06:13:07.059Z,68.49
2018-04-06T06:15:35.191Z,68.64
2018-04-06T06:18:03.378Z,67.29
2018-04-06T06:20:31.525Z,66.86
2018-04-06T06:22:59.658Z,64.41
2018-04-06T06:25:27.793Z,64.96
2018-04-06T06:27:55.895Z,64.11
2018-04-06T06:30:24.023Z,63.30
2018-04-06T06:32:52.160Z,62.35
2018-04-06T06:35:20.298Z,63.14
2018-04-06T06:37:48.432Z,61.87
2018-04-06T06:40:16.554Z,61.07
2018-04-06T06:42:44.675Z,61.58
2018-04-06T06:45:12.792Z,60.49
2018-04-06T06:47:40.934Z,60.45
2018-04-06T06:50:09.087Z,60.84
2018-04-06T06:52:37.243Z,60.31
2018-04-06T06:55:05.353Z,59.59
2018-04-06T06:57:33.492Z,59.05
2018-04-06T07:00:01.630Z,58.19
2018-04-06T07:02:29.742Z,58.90
2018-04-06T07:04:57.852Z,59.12
2018-04-06T07:07:25.974Z,59.63
2018-04-06T07:09:54.126Z,58.44
2018-04-06T07:12:22.252Z,58.19
2018-04-06T07:14:50.432Z,58.37
2018-04-06T07:17:18.574Z,57.02
2018-04-06T07:19:46.676Z,55.62
2018-04-06T07:22:14.820Z,54.90
2018-04-06T07:24:42.962Z,55.17
2018-04-06T07:27:11.103Z,53.88
2018-04-06T07:29:39.230Z,55.73
2018-04-06T07:32:07.369Z,54.67
2018-04-06T07:34:35.504Z,54.28
2018-04-06T07:37:06.837Z,55.34
2018-04-06T07:39:34.952Z,53.37
2018-04-06T07:42:03.087Z,53.97
2018-04-06T07:44:31.209Z,52.98
2018-04-06T07:46:59.503Z,53.12
2018-04-06T07:49:27.624Z,53.75
2018-04-06T07:51:55.774Z,53.30
2018-04-06T07:54:23.899Z,52.53
2018-04-06T07:56:52.043Z,54.46
2018-04-06T07:59:20.165Z,52.35
2018-04-06T08:01:48.353Z,51.07
2018-04-06T08:04:16.471Z,52.01
2018-04-06T08:06:44.608Z,52.02
2018-04-06T08:09:12.762Z,51.62
2018-04-06T08:11:40.882Z,51.24
2018-04-06T08:14:09.035Z,51.00
2018-04-06T08:16:37.643Z,50.14
2018-04-06T08:19:05.773Z,50.26
2018-04-06T08:21:34.294Z,49.41
2018-04-06T08:24:02.420Z,49.60
2018-04-06T08:26:30.576Z,48.42
2018-04-06T08:28:58.703Z,48.85
2018-04-06T08:31:26.881Z,49.96
2018-04-06T08:33:55.028Z,49.73
2018-04-06T08:36:23.173Z,50.59
2018-04-06T08:38:51.290Z,47.82
2018-04-06T08:41:19.419Z,47.94
2018-04-06T08:43:47.557Z,47.67
2018-04-06T08:46:15.672Z,46.86
2018-04-06T08:48:43.816Z,45.79
2018-04-06T08:51:11.951Z,45.34
2018-04-06T08:53:40.078Z,45.27
2018-04-06T08:56:08.248Z,44.40
2018-04-06T08:58:36.396Z,45.04
2018-04-06T09:01:04.563Z,43.90
2018-04-06T09:03:32.681Z,44.05
2018-04-06T09:06:00.833Z,43.24
2018-04-06T09:08:28.975Z,42.92
2018-04-06T09:10:57.102Z,42.43
2018-04-06T09:13:28.927Z,42.01
2018-04-06T09:15:57.071Z,41.04
2018-04-06T09:18:25.197Z,38.75
2018-04-06T09:20:53.323Z,39.95
2018-04-06T09:23:21.511Z,39.47
2018-04-06T09:25:49.670Z,38.27
2018-04-06T09:28:17.799Z,39.44
2018-04-06T09:30:45.957Z,40.77
2018-04-06T09:33:14.076Z,39.53
2018-04-06T09:35:42.211Z,38.63
2018-04-06T09:38:16.110Z,37.09
2018-04-06T09:40:44.212Z,38.62
2018-04-06T09:43:12.353Z,37.83
2018-04-06T09:45:40.531Z,38.18
2018-04-06T09:48:08.663Z,37.89
2018-04-06T09:50:36.783Z,36.51
2018-04-06T09:53:04.900Z,36.12
2018-04-06T09:55:33.012Z,35.92
2018-04-06T09:58:01.146Z,36.04
2018-04-06T10:00:33.148Z,35.21
2018-04-06T10:03:03.207Z,33.85
2018-04-06T10:05:31.314Z,34.85
2018-04-06T10:07:59.448Z,34.64
2018-04-06T10:10:27.577Z,32.73
2018-04-06T10:12:55.695Z,34.99
2018-04-06T10:15:23.822Z,34.85
2018-04-06T10:17:51.933Z,34.52
2018-04-06T10:20:20.089Z,34.82
2018-04-06T10:22:48.206Z,34.74
2018-04-06T10:25:16.324Z,32.90
2018-04-06T10:27:44.453Z,31.80
2018-04-06T10:30:12.592Z,31.69
2018-04-06T10:32:40.712Z,32.27
2018-04-06T10:35:10.912Z,32.37
2018-04-06T10:37:39.238Z,32.17
2018-04-06T10:40:07.364Z,32.83
2018-04-06T10:42:35.482Z,32.18
2018-04-06T10:45:03.621Z,31.30
2018-04-06T10:47:32.024Z,31.73
2018-04-06T10:50:00.136Z,31.35
2018-04-06T10:52:28.260Z,33.05
2018-04-06T10:54:56.412Z,33.24
2018-04-06T10:57:24.554Z,32.29
2018-04-06T10:59:52.673Z,32.32
2018-04-06T11:02:20.793Z,31.03
2018-04-06T11:04:48.918Z,31.70
2018-04-06T11:07:17.026Z,31.72
2018-04-06T11:09:45.168Z,32.99
2018-04-06T11:12:13.293Z,32.60
2018-04-06T11:14:41.421Z,31.57
2018-04-06T11:17:09.573Z,32.62
2018-04-06T11:19:37.688Z,32.63
2018-04-06T11:22:05.896Z,31.94
2018-04-06T11:24:34.010Z,31.34
2018-04-06T11:27:02.124Z,31.53
2018-04-06T11:29:30.514Z,29.83
2018-04-06T11:31:58.623Z,30.33
2018-04-06T11:34:26.745Z,30.10
2018-04-06T11:36:54.917Z,30.81
2018-04-06T11:39:23.022Z,29.55
2018-04-06T11:41:51.153Z,29.67
2018-04-06T11:44:19.292Z,31.16
2018-04-06T11:46:47.398Z,31.62
2018-04-06T11:49:15.517Z,31.15
2018-04-06T11:51:43.621Z,29.19
2018-04-06T11:54:11.805Z,29.50
2018-04-06T11:56:39.864Z,28.58
2018-04-06T11:59:07.992Z,30.43
2018-04-06T12:01:36.644Z,29.14
2018-04-06T12:04:04.738Z,27.79
2018-04-06T12:06:33.789Z,27.73
2018-04-06T12:09:01.893Z,28.00
2018-04-06T12:11:30.025Z,28.26
2018-04-06T12:13:58.131Z,28.68
2018-04-06T12:16:26.259Z,27.97
2018-04-06T12:18:54.389Z,27.21
2018-04-06T12:21:22.811Z,28.34
2018-04-06T12:23:51.227Z,27.45
2018-04-06T12:26:19.357Z,28.35
2018-04-06T12:28:47.481Z,28.75
2018-04-06T12:31:15.624Z,27.21
2018-04-06T12:33:43.774Z,27.07
2018-04-06T12:36:11.899Z,25.09
2018-04-06T12:38:40.017Z,25.19
2018-04-06T12:41:08.121Z,25.93
2018-04-06T12:43:36.240Z,25.37
2018-04-06T12:46:04.341Z,24.29
2018-04-06T12:48:32.477Z,24.38
2018-04-06T12:51:00.588Z,26.22
2018-04-06T12:53:28.863Z,25.20
2018-04-06T12:55:56.956Z,25.25
2018-04-06T12:58:25.082Z,25.64
2018-04-06T13:00:53.207Z,26.15
2018-04-06T13:03:21.316Z,25.90
2018-04-06T13:05:49.439Z,25.52
2018-04-06T13:08:17.560Z,27.17
2018-04-06T13:10:45.679Z,25.55
2018-04-06T13:13:13.813Z,24.45
2018-04-06T13:15:44.860Z,24.25
2018-04-06T13:18:12.997Z,24.69
2018-04-06T13:20:41.120Z,25.04
2018-04-06T13:23:09.300Z,25.97
2018-04-06T13:25:37.936Z,24.27
2018-04-06T13:28:06.064Z,25.57
2018-04-06T13:30:34.368Z,24.24
2018-04-06T13:33:02.615Z,24.74
2018-04-06T13:35:30.926Z,25.32
2018-04-06T13:37:59.045Z,25.53
2018-04-06T13:40:27.171Z,26.47
2018-04-06T13:42:55.285Z,25.61
2018-04-06T13:45:23.427Z,24.30
2018-04-06T13:47:51.553Z,24.88
2018-04-06T13:50:19.701Z,23.77
2018-04-06T13:52:51.531Z,23.56
2018-04-06T13:55:19.682Z,23.84
2018-04-06T13:57:47.801Z,24.45
2018-04-06T14:00:15.901Z,22.80
2018-04-06T14:02:44.025Z,23.32
2018-04-06T14:05:12.142Z,22.66
2018-04-06T14:07:40.240Z,22.84
2018-04-06T14:10:08.371Z,23.76
2018-04-06T14:12:36.495Z,23.41
2018-04-06T14:15:04.666Z,24.24
2018-04-06T14:17:35.941Z,24.37
2018-04-06T14:20:04.064Z,24.14
2018-04-06T14:22:32.206Z,22.82
2018-04-06T14:25:00.312Z,23.11
2018-04-06T14:27:28.445Z,22.71
2018-04-06T14:29:56.538Z,23.42
2018-04-06T14:32:24.655Z,23.51
2018-04-06T14:34:52.780Z,23.49
2018-04-06T14:37:20.915Z,23.89
2018-04-06T14:39:49.055Z,23.92
2018-04-06T14:42:17.165Z,23.72
2018-04-06T14:44:45.288Z,23.56
2018-04-06T14:47:13.421Z,25.34
2018-04-06T14:49:41.521Z,23.99
2018-04-06T14:52:09.648Z,24.50
2018-04-06T14:54:37.763Z,25.51
2018-04-06T14:57:05.911Z,24.75
2018-04-06T14:59:34.028Z,24.86
2018-04-06T15:02:02.226Z,24.93
2018-04-06T15:04:30.340Z,25.92
2018-04-06T15:06:58.538Z,25.85
2018-04-06T15:09:26.797Z,26.03
2018-04-06T15:12:01.099Z,26.18
2018-04-06T15:14:30.291Z,25.73
2018-04-06T15:16:58.410Z,25.78
2018-04-06T15:19:26.551Z,26.04
2018-04-06T15:21:54.721Z,25.56
2018-04-06T15:24:22.853Z,26.05
2018-04-06T15:26:50.992Z,25.93
2018-04-06T15:29:19.104Z,25.56
2018-04-06T15:31:48.494Z,26.07
2018-04-06T15:34:16.800Z,26.24
2018-04-06T15:36:45.128Z,25.73
2018-04-06T15:39:13.232Z,25.85
2018-04-06T15:41:41.346Z,26.12
2018-04-06T15:44:10.823Z,25.69
2018-04-06T15:46:38.934Z,26.15
2018-04-06T15:49:07.088Z,25.43
2018-04-06T15:51:35.237Z,25.39
2018-04-06T15:54:03.364Z,25.15
2018-04-06T15:56:31.492Z,25.19
2018-04-06T15:58:59.611Z,26.40
2018-04-06T16:01:27.742Z,26.33
2018-04-06T16:03:55.898Z,26.28
2018-04-06T16:06:24.026Z,26.15
2018-04-06T16:08:52.165Z,25.91
2018-04-06T16:11:20.781Z,26.40
2018-04-06T16:13:48.884Z,26.57
2018-04-06T16:16:17.008Z,26.93
2018-04-06T16:18:45.162Z,27.13
2018-04-06T16:21:13.269Z,26.94
2018-04-06T16:23:41.411Z,27.23
2018-04-06T16:26:09.564Z,27.06
2018-04-06T16:28:37.691Z,26.74
2018-04-06T16:31:05.834Z,27.73
2018-04-06T16:33:33.976Z,27.18
2018-04-06T16:36:02.104Z,27.14
2018-04-06T16:38:30.231Z,27.02
2018-04-06T16:41:01.757Z,26.74
2018-04-06T16:43:29.861Z,28.09
2018-04-06T16:45:58.010Z,27.23
2018-04-06T16:48:26.163Z,27.88
2018-04-06T16:50:54.275Z,27.08
2018-04-06T16:53:22.404Z,27.97
2018-04-06T16:55:50.526Z,27.86
2018-04-06T16:58:18.674Z,27.96
2018-04-06T17:00:46.807Z,27.34
2018-04-06T17:03:14.942Z,27.97
2018-04-06T17:05:43.049Z,28.17
2018-04-06T17:08:11.183Z,28.47
2018-04-06T17:10:39.310Z,28.89
2018-04-06T17:13:07.472Z,29.39
2018-04-06T17:15:35.560Z,28.50
2018-04-06T17:18:03.677Z,29.06
2018-04-06T17:20:31.833Z,28.95
2018-04-06T17:22:59.958Z,28.63
2018-04-06T17:25:28.082Z,28.53
2018-04-06T17:27:56.205Z,28.89
2018-04-06T17:30:24.336Z,28.95
2018-04-06T17:32:52.477Z,29.07
2018-04-06T17:35:23.579Z,29.43
2018-04-06T17:37:51.696Z,29.07
2018-04-06T17:40:19.849Z,29.19
2018-04-06T17:42:47.952Z,31.92
2018-04-06T17:45:16.099Z,29.63
2018-04-06T17:47:44.204Z,29.68
2018-04-06T17:50:12.338Z,29.83
2018-04-06T17:52:40.494Z,30.53
2018-04-06T17:55:08.622Z,30.77
2018-04-06T17:57:37.090Z,30.32
2018-04-06T18:00:07.457Z,30.90
2018-04-06T18:02:35.596Z,30.49
2018-04-06T18:05:03.735Z,31.12
2018-04-06T18:07:31.855Z,31.37
2018-04-06T18:10:00.020Z,31.23
2018-04-06T18:12:28.261Z,31.48
2018-04-06T18:14:56.365Z,31.32
2018-04-06T18:17:24.484Z,31.46
2018-04-06T18:19:52.616Z,31.40
2018-04-06T18:22:20.805Z,31.67
2018-04-06T18:24:48.939Z,31.22
2018-04-06T18:27:17.374Z,30.96
2018-04-06T18:29:45.515Z,31.83
2018-04-06T18:32:13.670Z,31.64
2018-04-06T18:34:41.799Z,31.49
2018-04-06T18:37:09.913Z,31.72
2018-04-06T18:39:38.051Z,31.73
2018-04-06T18:42:06.197Z,31.38
2018-04-06T18:44:34.315Z,31.60
2018-04-06T18:47:02.444Z,32.08
2018-04-06T18:49:30.595Z,31.97
2018-04-06T18:51:58.692Z,32.58
2018-04-06T18:54:26.813Z,32.56
2018-04-06T18:56:54.933Z,32.52
2018-04-06T18:59:23.074Z,32.18
2018-04-06T19:01:51.194Z,32.56
2018-04-06T19:04:19.385Z,32.46
2018-04-06T19:06:47.546Z,32.83
2018-04-06T19:09:15.663Z,32.60
2018-04-06T19:11:43.802Z,32.76
2018-04-06T19:14:11.939Z,32.86
2018-04-06T19:16:40.038Z,33.17
2018-04-06T19:19:08.173Z,33.02
2018-04-06T19:21:36.551Z,33.34
2018-04-06T19:24:04.665Z,33.65
2018-04-06T19:26:32.787Z,33.40
2018-04-06T19:29:00.898Z,33.76
2018-04-06T19:31:29.036Z,33.96
2018-04-06T19:33:57.164Z,33.89
2018-04-06T19:36:25.321Z,34.10
2018-04-06T19:38:53.430Z,35.08
2018-04-06T19:41:25.288Z,34.21
2018-04-06T19:43:53.459Z,34.78
2018-04-06T19:46:21.539Z,34.70
2018-04-06T19:48:49.692Z,35.00
2018-04-06T19:51:17.815Z,35.23
2018-04-06T19:53:45.933Z,34.99
2018-04-06T19:56:14.063Z,35.27
2018-04-06T19:58:42.176Z,35.56
2018-04-06T20:01:10.318Z,35.78
2018-04-06T20:03:38.447Z,36.16
2018-04-06T20:06:06.596Z,35.88
2018-04-06T20:08:34.717Z,36.40
2018-04-06T20:11:02.867Z,36.41
2018-04-06T20:13:31.010Z,36.69
2018-04-06T20:15:59.124Z,37.38
2018-04-06T20:18:27.389Z,37.35
2018-04-06T20:20:55.525Z,37.34
2018-04-06T20:23:23.643Z,36.88
2018-04-06T20:25:51.779Z,37.86
2018-04-06T20:28:22.848Z,37.50
2018-04-06T20:30:50.993Z,38.02
2018-04-06T20:33:19.128Z,38.11
2018-04-06T20:35:47.297Z,38.05
2018-04-06T20:38:15.425Z,38.46
2018-04-06T20:40:43.540Z,38.70
2018-04-06T20:43:11.663Z,38.17
2018-04-06T20:45:39.819Z,37.75
2018-04-06T20:48:07.925Z,38.22
2018-04-06T20:50:36.069Z,38.28
2018-04-06T20:53:04.178Z,38.86
2018-04-06T20:55:32.289Z,38.63
2018-04-06T20:58:00.442Z,38.45
2018-04-06T21:00:28.564Z,38.75
2018-04-06T21:02:56.715Z,38.90
2018-04-06T21:05:24.855Z,38.95
2018-04-06T21:07:52.979Z,38.83
2018-04-06T21:10:21.107Z,38.37
2018-04-06T21:12:50.139Z,38.78
2018-04-06T21:15:18.298Z,39.57
2018-04-06T21:17:46.428Z,39.55
2018-04-06T21:20:14.554Z,39.80
2018-04-06T21:22:42.692Z,39.57
2018-04-06T21:25:10.815Z,39.63
2018-04-06T21:27:38.950Z,39.52
2018-04-06T21:30:07.084Z,39.43
2018-04-06T21:32:35.211Z,40.06
2018-04-06T21:35:03.352Z,40.00
2018-04-06T21:37:31.584Z,40.38
2018-04-06T21:39:59.689Z,39.67
2018-04-06T21:42:27.812Z,39.98
2018-04-06T21:44:55.950Z,40.64
2018-04-06T21:47:24.091Z,40.44
2018-04-06T21:49:52.210Z,40.72
2018-04-06T21:52:20.363Z,41.59
2018-04-06T21:54:48.461Z,41.06
2018-04-06T21:57:16.583Z,41.26
2018-04-06T21:59:45.230Z,40.96
2018-04-06T22:02:13.344Z,41.24
2018-04-06T22:04:41.557Z,41.36
2018-04-06T22:07:09.658Z,41.40
2018-04-06T22:09:37.846Z,41.12
2018-04-06T22:12:06.075Z,41.18
2018-04-06T22:14:34.184Z,41.71
2018-04-06T22:17:02.328Z,41.81
2018-04-06T22:19:30.446Z,41.71
2018-04-06T22:21:58.564Z,41.81
2018-04-06T22:24:26.725Z,41.62
2018-04-06T22:26:55.318Z,42.24
2018-04-06T22:29:23.464Z,42.82
2018-04-06T22:31:51.604Z,42.12
2018-04-06T22:34:19.733Z,42.53
2018-04-06T22:36:47.880Z,42.73
2018-04-06T22:39:16.026Z,42.70
2018-04-06T22:41:44.168Z,42.79
2018-04-06T22:44:12.297Z,43.41
2018-04-06T22:46:40.429Z,43.15
2018-04-06T22:49:08.574Z,42.89
2018-04-06T22:51:36.712Z,43.06
2018-04-06T22:54:04.857Z,43.41
2018-04-06T22:56:33.000Z,43.37
2018-04-06T22:59:01.124Z,43.69
2018-04-06T23:01:29.269Z,43.46
2018-04-06T23:03:57.448Z,43.22
2018-04-06T23:06:25.602Z,44.02
2018-04-06T23:08:53.734Z,43.22
2018-04-06T23:11:21.872Z,43.58
2018-04-06T23:13:50.021Z,43.50
2018-04-06T23:16:21.343Z,43.79
2018-04-06T23:18:49.502Z,43.87
2018-04-06T23:21:17.661Z,44.14
2018-04-06T23:23:45.793Z,43.99
2018-04-06T23:26:13.956Z,43.89
2018-04-06T23:28:42.081Z,43.78
2018-04-06T23:31:10.235Z,43.97
2018-04-06T23:33:38.368Z,44.10
2018-04-06T23:36:06.498Z,44.35
2018-04-06T23:38:34.644Z,43.93
2018-04-06T23:41:02.792Z,44.27
2018-04-06T23:43:30.933Z,44.77
2018-04-06T23:45:59.076Z,44.66
2018-04-06T23:48:27.220Z,44.53
2018-04-06T23:50:55.375Z,44.84
2018-04-06T23:53:23.498Z,44.62
2018-04-06T23:55:51.645Z,44.42
2018-04-06T23:58:19.782Z,44.89
